METAR AND TAF INFORMATION
METAR FOR SVSA
ADDS - METARS form results

(2026 UTC 05 April 2020)
Data provider http://aviationweather.gov/metar/data/
 
Forecast for: SVSA (SAN ANTONIO TACH, VE)
Text: TAF SVSA 051600Z 0518/0618 15004KT 9999 BKN016 TX30/19Z TN23/08Z
Forecast period: 1800 UTC 05 April 2020 to 1800 UTC 06 April 2020
Forecast type: FROM: standard forecast or significant change
Winds: from the SSE (150 degrees) at 5 MPH (4 knots; 2.1 m/s)
Visibility: 6 or more miles 10+ km)
Ceiling: 1600 feet AGL
Clouds: broken clouds at 1600 feet AGL
Weather: no significant weather forecast for this period
Text: TEMPO 0518/0522 13006KT 9000 -DZ BKN010
Forecast period: 1800 to 2200 UTC 05 April 2020
Forecast type: TEMPORARY: The following changes expected for less than half the time period
Winds: from the SE (130 degrees) at 7 MPH (6 knots; 3.1 m/s)
Visibility: 6 miles (9 km)
Ceiling: 1000 feet AGL
Clouds: broken clouds at 1000 feet AGL
Weather: -DZ  (light drizzle)

 AIRPORT MAP

 RUNWAY INFORMATION
Runway 17 Runway length 6135 ft Runway width 131 ft
Runway elevation 0 ft Runway displaced threshold 0 ft Runway heading 166
Runway 35 Runway length 6135 ft Runway width 131 ft
Runway elevation 0 ft Runway displaced threshold 0 ft Runway heading 346

 AIRPORT FREQUENCIES
Type GND Name GND Frequency 121.9 MHZ
Type TWR Name TWR Frequency 118.5 MHZ

 AIRPORT NEAR NAVIGATION AIDS